createdAt,value
2022-10-15T00:00:01.325Z,18.39
2022-10-15T00:00:11.342Z,18.39
2022-10-15T00:00:21.327Z,18.39
2022-10-15T00:00:31.327Z,18.39
2022-10-15T00:00:41.327Z,18.40
2022-10-15T00:00:51.328Z,18.39
2022-10-15T00:01:01.350Z,18.39
2022-10-15T00:01:11.361Z,18.39
2022-10-15T00:01:21.406Z,18.40
2022-10-15T00:01:31.355Z,18.41
2022-10-15T00:01:41.433Z,18.41
2022-10-15T00:01:51.370Z,18.39
2022-10-15T00:02:01.333Z,18.41
2022-10-15T00:02:11.373Z,18.40
2022-10-15T00:02:21.332Z,18.40
2022-10-15T00:02:31.333Z,18.40
2022-10-15T00:02:41.335Z,18.38
2022-10-15T00:02:51.335Z,18.41
2022-10-15T00:03:01.326Z,18.40
2022-10-15T00:03:11.338Z,18.39
2022-10-15T00:03:21.338Z,18.40
2022-10-15T00:03:31.344Z,18.39
2022-10-15T00:03:41.339Z,18.40
2022-10-15T00:03:51.375Z,18.40
2022-10-15T00:04:11.343Z,18.40
2022-10-15T00:04:21.343Z,18.39
2022-10-15T00:04:31.342Z,18.40
2022-10-15T00:04:41.347Z,18.39
2022-10-15T00:04:51.329Z,18.40
2022-10-15T00:05:01.341Z,18.40
2022-10-15T00:05:11.332Z,18.40
2022-10-15T00:05:21.347Z,18.39
2022-10-15T00:05:31.348Z,18.39
2022-10-15T00:05:41.349Z,18.37
2022-10-15T00:05:51.351Z,18.38
2022-10-15T00:06:01.353Z,18.40
2022-10-15T00:06:11.353Z,18.39
2022-10-15T00:06:21.353Z,18.38
2022-10-15T00:06:31.354Z,18.39
2022-10-15T00:06:41.355Z,18.39
2022-10-15T00:06:51.341Z,18.40
2022-10-15T00:07:01.355Z,18.40
2022-10-15T00:07:11.378Z,18.39
2022-10-15T00:07:21.523Z,18.41
2022-10-15T00:07:31.357Z,18.40
2022-10-15T00:07:41.359Z,18.39
2022-10-15T00:07:51.360Z,18.40
2022-10-15T00:08:01.361Z,18.39
2022-10-15T00:08:11.361Z,18.41
2022-10-15T00:08:21.364Z,18.40
2022-10-15T00:08:31.361Z,18.40
2022-10-15T00:08:41.363Z,18.39
2022-10-15T00:08:51.350Z,18.39
2022-10-15T00:09:01.369Z,18.40
2022-10-15T00:09:11.353Z,18.41
2022-10-15T00:09:21.367Z,18.40
2022-10-15T00:09:31.366Z,18.39
2022-10-15T00:09:41.371Z,18.40
2022-10-15T00:09:51.371Z,18.41
2022-10-15T00:10:01.371Z,18.40
2022-10-15T00:10:11.376Z,18.41
2022-10-15T00:10:21.372Z,18.41
2022-10-15T00:10:31.375Z,18.41
2022-10-15T00:10:41.374Z,18.41
2022-10-15T00:10:51.374Z,18.41
2022-10-15T00:11:01.376Z,18.42
2022-10-15T00:11:11.377Z,18.39
2022-10-15T00:11:21.378Z,18.41
2022-10-15T00:11:31.383Z,18.41
2022-10-15T00:11:41.379Z,18.39
2022-10-15T00:11:51.382Z,18.41
2022-10-15T00:12:01.382Z,18.40
2022-10-15T00:12:11.396Z,18.40
2022-10-15T00:12:21.381Z,18.41
2022-10-15T00:12:31.383Z,18.41
2022-10-15T00:12:41.383Z,18.40
2022-10-15T00:12:51.426Z,18.41
2022-10-15T00:13:11.385Z,18.40
2022-10-15T00:13:21.386Z,18.40
2022-10-15T00:13:31.386Z,18.41
2022-10-15T00:13:41.387Z,18.41
2022-10-15T00:13:51.386Z,18.41
2022-10-15T00:14:01.390Z,18.41
2022-10-15T00:14:11.400Z,18.41
2022-10-15T00:14:21.389Z,18.40
2022-10-15T00:14:31.391Z,18.39
2022-10-15T00:14:41.392Z,18.41
2022-10-15T00:14:51.393Z,18.40
2022-10-15T00:15:01.392Z,18.41
2022-10-15T00:15:11.396Z,18.42
2022-10-15T00:15:21.395Z,18.41
2022-10-15T00:15:31.395Z,18.42
2022-10-15T00:15:41.394Z,18.40
2022-10-15T00:15:51.398Z,18.40
2022-10-15T00:16:01.396Z,18.41
2022-10-15T00:16:11.398Z,18.40
2022-10-15T00:16:21.399Z,18.43
2022-10-15T00:16:31.403Z,18.42
2022-10-15T00:16:41.400Z,18.42
2022-10-15T00:16:51.403Z,18.41
2022-10-15T00:17:01.402Z,18.41
2022-10-15T00:17:11.417Z,18.40
2022-10-15T00:17:21.762Z,18.40
2022-10-15T00:17:31.405Z,18.40
2022-10-15T00:17:41.408Z,18.39
2022-10-15T00:17:51.404Z,18.39
2022-10-15T00:18:01.431Z,18.39
2022-10-15T00:18:11.410Z,18.38
2022-10-15T00:18:21.406Z,18.40
2022-10-15T00:18:31.408Z,18.39
2022-10-15T00:18:41.409Z,18.40
2022-10-15T00:18:51.408Z,18.42
2022-10-15T00:19:01.409Z,18.41
2022-10-15T00:19:11.409Z,18.42
2022-10-15T00:19:21.409Z,18.41
2022-10-15T00:19:31.408Z,18.41
2022-10-15T00:19:41.413Z,18.39
2022-10-15T00:19:51.409Z,18.41
2022-10-15T00:20:01.409Z,18.40
2022-10-15T00:20:11.412Z,18.41
2022-10-15T00:20:21.410Z,18.41
2022-10-15T00:20:31.412Z,18.40
2022-10-15T00:20:41.413Z,18.40
2022-10-15T00:20:51.400Z,18.40
2022-10-15T00:21:01.416Z,18.39
2022-10-15T00:21:11.420Z,18.40
2022-10-15T00:21:21.420Z,18.41
2022-10-15T00:21:31.420Z,18.41
2022-10-15T00:21:41.418Z,18.39
2022-10-15T00:21:51.450Z,18.40
2022-10-15T00:22:11.449Z,18.41
2022-10-15T00:22:21.848Z,18.39
2022-10-15T00:22:31.423Z,18.38
2022-10-15T00:22:41.425Z,18.38
2022-10-15T00:22:51.426Z,18.38
2022-10-15T00:23:01.431Z,18.39
2022-10-15T00:23:11.429Z,18.40
2022-10-15T00:23:21.429Z,18.39
2022-10-15T00:23:31.431Z,18.39
2022-10-15T00:23:41.431Z,18.40
2022-10-15T00:23:51.430Z,18.40
2022-10-15T00:24:01.431Z,18.41
2022-10-15T00:24:11.431Z,18.40
2022-10-15T00:24:21.430Z,18.41
2022-10-15T00:24:31.435Z,18.42
2022-10-15T00:24:41.434Z,18.42
2022-10-15T00:24:51.420Z,18.41
2022-10-15T00:25:01.422Z,18.41
2022-10-15T00:25:11.422Z,18.39
2022-10-15T00:25:21.424Z,18.40
2022-10-15T00:25:31.440Z,18.41
2022-10-15T00:25:41.440Z,18.40
2022-10-15T00:25:51.442Z,18.41
2022-10-15T00:26:01.443Z,18.40
2022-10-15T00:26:11.442Z,18.40
2022-10-15T00:26:21.444Z,18.40
2022-10-15T00:26:31.449Z,18.40
2022-10-15T00:26:41.450Z,18.40
2022-10-15T00:26:51.447Z,18.41
2022-10-15T00:27:01.449Z,18.41
2022-10-15T00:27:11.489Z,18.39
2022-10-15T00:27:21.451Z,18.40
2022-10-15T00:27:31.456Z,18.40
2022-10-15T00:27:41.453Z,18.40
2022-10-15T00:27:51.458Z,18.39
2022-10-15T00:28:01.454Z,18.40
2022-10-15T00:28:11.457Z,18.40
2022-10-15T00:28:21.506Z,18.41
2022-10-15T00:28:33.552Z,18.41
2022-10-15T00:28:41.506Z,18.39
2022-10-15T00:28:51.499Z,18.40
2022-10-15T00:29:01.574Z,18.39
2022-10-15T00:29:11.462Z,18.38
2022-10-15T00:29:21.460Z,18.38
2022-10-15T00:29:31.446Z,18.38
2022-10-15T00:29:41.459Z,18.40
2022-10-15T00:29:51.468Z,18.39
2022-10-15T00:30:01.463Z,18.40
2022-10-15T00:30:11.472Z,18.40
2022-10-15T00:30:21.466Z,18.39
2022-10-15T00:30:31.469Z,18.40
2022-10-15T00:30:41.467Z,18.40
2022-10-15T00:30:51.513Z,18.39
2022-10-15T00:31:01.498Z,18.39
2022-10-15T00:31:11.478Z,18.38
2022-10-15T00:31:21.473Z,18.38
2022-10-15T00:31:31.474Z,18.38
2022-10-15T00:31:41.475Z,18.39
2022-10-15T00:31:51.473Z,18.40
2022-10-15T00:32:01.475Z,18.39
2022-10-15T00:32:11.472Z,18.41
2022-10-15T00:32:21.910Z,18.41
2022-10-15T00:32:31.476Z,18.39
2022-10-15T00:32:41.475Z,18.38
2022-10-15T00:32:51.475Z,18.41
2022-10-15T00:33:01.476Z,18.39
2022-10-15T00:33:11.479Z,18.42
2022-10-15T00:33:21.478Z,18.40
2022-10-15T00:33:31.484Z,18.39
2022-10-15T00:33:41.481Z,18.39
2022-10-15T00:33:51.483Z,18.38
2022-10-15T00:34:01.482Z,18.39
2022-10-15T00:34:11.485Z,18.39
2022-10-15T00:34:21.486Z,18.41
2022-10-15T00:34:31.489Z,18.40
2022-10-15T00:34:41.485Z,18.40
2022-10-15T00:34:51.487Z,18.40
2022-10-15T00:35:01.486Z,18.40
2022-10-15T00:35:11.472Z,18.40
2022-10-15T00:35:21.489Z,18.39
2022-10-15T00:35:31.491Z,18.41
2022-10-15T00:35:41.490Z,18.39
2022-10-15T00:35:51.491Z,18.39
2022-10-15T00:36:01.493Z,18.40
2022-10-15T00:36:11.491Z,18.38
2022-10-15T00:36:21.493Z,18.39
2022-10-15T00:36:31.479Z,18.39
2022-10-15T00:36:41.495Z,18.39
2022-10-15T00:36:51.479Z,18.40
2022-10-15T00:37:01.497Z,18.39
2022-10-15T00:37:11.497Z,18.39
2022-10-15T00:37:21.500Z,18.40
2022-10-15T00:37:31.503Z,18.39
2022-10-15T00:37:41.499Z,18.38
2022-10-15T00:37:51.500Z,18.40
2022-10-15T00:38:01.485Z,18.40
2022-10-15T00:38:11.500Z,18.40
2022-10-15T00:38:21.498Z,18.40
2022-10-15T00:38:31.504Z,18.41
2022-10-15T00:38:41.503Z,18.39
2022-10-15T00:38:51.506Z,18.43
2022-10-15T00:39:01.506Z,18.43
2022-10-15T00:39:11.507Z,18.42
2022-10-15T00:39:21.512Z,18.42
2022-10-15T00:39:31.509Z,18.40
2022-10-15T00:39:41.508Z,18.39
2022-10-15T00:39:51.562Z,18.38
2022-10-15T00:40:11.524Z,18.38
2022-10-15T00:40:21.520Z,18.39
2022-10-15T00:40:31.515Z,18.38
2022-10-15T00:40:41.518Z,18.39
2022-10-15T00:40:51.521Z,18.36
2022-10-15T00:41:01.516Z,18.38
2022-10-15T00:41:11.517Z,18.38
2022-10-15T00:41:21.520Z,18.37
2022-10-15T00:41:31.520Z,18.38
2022-10-15T00:41:41.508Z,18.38
2022-10-15T00:41:51.526Z,18.38
2022-10-15T00:42:01.526Z,18.38
2022-10-15T00:42:11.523Z,18.37
2022-10-15T00:42:21.836Z,18.39
2022-10-15T00:42:31.527Z,18.38
2022-10-15T00:42:41.525Z,18.39
2022-10-15T00:42:51.526Z,18.37
2022-10-15T00:43:01.513Z,18.39
2022-10-15T00:43:11.527Z,18.39
2022-10-15T00:43:21.528Z,18.40
2022-10-15T00:43:31.535Z,18.39
2022-10-15T00:43:41.531Z,18.39
2022-10-15T00:43:51.533Z,18.41
2022-10-15T00:44:01.539Z,18.39
2022-10-15T00:44:11.535Z,18.40
2022-10-15T00:44:21.564Z,18.39
2022-10-15T00:44:31.551Z,18.39
2022-10-15T00:44:41.536Z,18.38
2022-10-15T00:44:51.548Z,18.38
2022-10-15T00:45:01.539Z,18.40
2022-10-15T00:45:11.540Z,18.38
2022-10-15T00:45:21.539Z,18.40
2022-10-15T00:45:31.540Z,18.40
2022-10-15T00:45:41.547Z,18.40
2022-10-15T00:45:51.542Z,18.39
2022-10-15T00:46:01.569Z,18.40
2022-10-15T00:46:11.544Z,18.38
2022-10-15T00:46:21.554Z,18.39
2022-10-15T00:46:31.545Z,18.39
2022-10-15T00:46:41.551Z,18.39
2022-10-15T00:46:51.547Z,18.37
2022-10-15T00:47:01.550Z,18.39
2022-10-15T00:47:11.549Z,18.40
2022-10-15T00:47:21.551Z,18.38
2022-10-15T00:47:31.548Z,18.38
2022-10-15T00:47:41.553Z,18.38
2022-10-15T00:47:51.553Z,18.39
2022-10-15T00:48:01.555Z,18.39
2022-10-15T00:48:11.556Z,18.37
2022-10-15T00:48:21.556Z,18.37
2022-10-15T00:48:31.556Z,18.37
2022-10-15T00:48:41.557Z,18.37
2022-10-15T00:48:51.624Z,18.36
2022-10-15T00:49:01.559Z,18.36
2022-10-15T00:49:11.581Z,18.38
2022-10-15T00:49:21.563Z,18.38
2022-10-15T00:49:31.560Z,18.37
2022-10-15T00:49:41.563Z,18.38
2022-10-15T00:49:51.566Z,18.37
2022-10-15T00:50:01.565Z,18.38
2022-10-15T00:50:11.567Z,18.39
2022-10-15T00:50:21.565Z,18.39
2022-10-15T00:50:31.568Z,18.39
2022-10-15T00:50:41.566Z,18.39
2022-10-15T00:50:51.569Z,18.40
2022-10-15T00:51:01.574Z,18.39
2022-10-15T00:51:11.567Z,18.39
2022-10-15T00:51:21.572Z,18.40
2022-10-15T00:51:31.572Z,18.39
2022-10-15T00:51:41.573Z,18.40
2022-10-15T00:51:51.573Z,18.39
2022-10-15T00:52:01.573Z,18.40
2022-10-15T00:52:11.576Z,18.39
2022-10-15T00:52:21.965Z,18.39
2022-10-15T00:52:31.576Z,18.40
2022-10-15T00:52:41.578Z,18.39
2022-10-15T00:52:51.578Z,18.40
2022-10-15T00:53:01.581Z,18.40
2022-10-15T00:53:11.580Z,18.41
2022-10-15T00:53:21.589Z,18.40
2022-10-15T00:53:31.582Z,18.42
2022-10-15T00:53:41.582Z,18.39
2022-10-15T00:53:51.588Z,18.40
2022-10-15T00:54:01.588Z,18.41
2022-10-15T00:54:11.587Z,18.40
2022-10-15T00:54:21.588Z,18.39
2022-10-15T00:54:31.587Z,18.39
2022-10-15T00:54:41.590Z,18.39
2022-10-15T00:54:51.594Z,18.39
2022-10-15T00:55:01.591Z,18.41
2022-10-15T00:55:11.592Z,18.40
2022-10-15T00:55:21.594Z,18.39
2022-10-15T00:55:31.595Z,18.40
2022-10-15T00:55:41.594Z,18.40
2022-10-15T00:55:51.595Z,18.40
2022-10-15T00:56:01.596Z,18.40
2022-10-15T00:56:11.595Z,18.39
2022-10-15T00:56:21.599Z,18.41
2022-10-15T00:56:31.598Z,18.41
2022-10-15T00:56:41.599Z,18.40
2022-10-15T00:56:51.600Z,18.41
2022-10-15T00:57:01.601Z,18.41
2022-10-15T00:57:11.586Z,18.41
2022-10-15T00:57:21.604Z,18.40
2022-10-15T00:57:31.607Z,18.40
2022-10-15T00:57:41.603Z,18.38
2022-10-15T00:57:51.607Z,18.38
2022-10-15T00:58:01.685Z,18.39
2022-10-15T00:58:21.611Z,18.38
2022-10-15T00:58:31.611Z,18.38
2022-10-15T00:58:41.609Z,18.39
2022-10-15T00:58:51.611Z,18.40
2022-10-15T00:59:01.613Z,18.40
2022-10-15T00:59:11.615Z,18.40
2022-10-15T00:59:21.613Z,18.40
2022-10-15T00:59:31.616Z,18.40
2022-10-15T00:59:41.618Z,18.38
2022-10-15T00:59:51.619Z,18.39
2022-10-15T01:00:01.623Z,18.39
2022-10-15T01:00:11.620Z,18.39
2022-10-15T01:00:21.621Z,18.39
2022-10-15T01:00:31.619Z,18.38
2022-10-15T01:00:41.621Z,18.38
2022-10-15T01:00:51.710Z,18.39
2022-10-15T01:01:01.662Z,18.38
2022-10-15T01:01:11.746Z,18.40
2022-10-15T01:01:21.707Z,18.39
2022-10-15T01:01:31.669Z,18.39
2022-10-15T01:01:41.625Z,18.38
2022-10-15T01:01:51.629Z,18.38
2022-10-15T01:02:01.626Z,18.39
2022-10-15T01:02:11.627Z,18.37
2022-10-15T01:02:21.888Z,18.38
2022-10-15T01:02:31.629Z,18.37
2022-10-15T01:02:41.629Z,18.38
2022-10-15T01:02:51.635Z,18.39
2022-10-15T01:03:01.630Z,18.38
2022-10-15T01:03:11.633Z,18.38
2022-10-15T01:03:21.631Z,18.40
2022-10-15T01:03:31.633Z,18.39
2022-10-15T01:03:41.635Z,18.39
2022-10-15T01:03:51.635Z,18.39
2022-10-15T01:04:01.622Z,18.39
2022-10-15T01:04:11.638Z,18.38
2022-10-15T01:04:21.638Z,18.39
2022-10-15T01:04:31.640Z,18.39
2022-10-15T01:04:41.637Z,18.38
2022-10-15T01:04:51.638Z,18.39
2022-10-15T01:05:01.640Z,18.39
2022-10-15T01:05:11.641Z,18.40
2022-10-15T01:05:21.640Z,18.39
2022-10-15T01:05:31.644Z,18.39
2022-10-15T01:05:41.630Z,18.39
2022-10-15T01:05:51.641Z,18.38
2022-10-15T01:06:01.643Z,18.38
2022-10-15T01:06:11.643Z,18.39
2022-10-15T01:06:21.645Z,18.40
2022-10-15T01:06:31.647Z,18.39
2022-10-15T01:06:41.649Z,18.39
2022-10-15T01:06:51.648Z,18.39
2022-10-15T01:07:01.632Z,18.39
2022-10-15T01:07:11.676Z,18.40
2022-10-15T01:07:21.655Z,18.39
2022-10-15T01:07:31.638Z,18.38
2022-10-15T01:07:41.655Z,18.39
2022-10-15T01:07:51.653Z,18.38
2022-10-15T01:08:01.652Z,18.38
2022-10-15T01:08:11.656Z,18.39
2022-10-15T01:08:21.663Z,18.40
2022-10-15T01:08:31.651Z,18.39
2022-10-15T01:08:41.656Z,18.40
2022-10-15T01:08:51.657Z,18.39
2022-10-15T01:09:01.659Z,18.40
2022-10-15T01:09:11.660Z,18.40
2022-10-15T01:09:21.659Z,18.39
2022-10-15T01:09:31.661Z,18.38
2022-10-15T01:09:41.662Z,18.38
2022-10-15T01:09:51.663Z,18.38
2022-10-15T01:10:01.661Z,18.38
2022-10-15T01:10:11.670Z,18.39
2022-10-15T01:10:21.664Z,18.37
2022-10-15T01:10:31.663Z,18.37
2022-10-15T01:10:41.665Z,18.40
2022-10-15T01:10:51.665Z,18.39
2022-10-15T01:11:01.664Z,18.39
2022-10-15T01:11:11.669Z,18.39
2022-10-15T01:11:21.665Z,18.38
2022-10-15T01:11:31.672Z,18.41
2022-10-15T01:11:41.667Z,18.40
2022-10-15T01:11:51.667Z,18.39
2022-10-15T01:12:01.669Z,18.39
2022-10-15T01:12:11.670Z,18.38
2022-10-15T01:12:21.947Z,18.40
2022-10-15T01:12:31.671Z,18.38
2022-10-15T01:12:41.674Z,18.39
2022-10-15T01:12:51.671Z,18.38
2022-10-15T01:13:01.679Z,18.38
2022-10-15T01:13:11.675Z,18.40
2022-10-15T01:13:21.675Z,18.39
2022-10-15T01:13:31.677Z,18.39
2022-10-15T01:13:41.675Z,18.39
2022-10-15T01:13:51.679Z,18.39
2022-10-15T01:14:01.679Z,18.38
2022-10-15T01:14:11.668Z,18.39
2022-10-15T01:14:21.682Z,18.39
2022-10-15T01:14:31.682Z,18.39
2022-10-15T01:14:41.683Z,18.38
2022-10-15T01:14:51.685Z,18.39
2022-10-15T01:15:01.683Z,18.40
2022-10-15T01:15:11.686Z,18.39
2022-10-15T01:15:21.686Z,18.40
2022-10-15T01:15:31.688Z,18.38
2022-10-15T01:15:41.722Z,18.37
2022-10-15T01:15:51.694Z,18.39
2022-10-15T01:16:01.760Z,18.37
2022-10-15T01:16:11.690Z,18.38
2022-10-15T01:16:21.692Z,18.37
2022-10-15T01:16:31.694Z,18.39
2022-10-15T01:16:41.695Z,18.38
2022-10-15T01:16:51.692Z,18.37
2022-10-15T01:17:01.694Z,18.38
2022-10-15T01:17:11.695Z,18.38
2022-10-15T01:17:21.838Z,18.39
2022-10-15T01:17:31.694Z,18.39
2022-10-15T01:17:41.696Z,18.38
2022-10-15T01:17:51.702Z,18.38
2022-10-15T01:18:01.682Z,18.39
2022-10-15T01:18:11.703Z,18.39
2022-10-15T01:18:21.699Z,18.38
2022-10-15T01:18:31.699Z,18.39
2022-10-15T01:18:41.703Z,18.37
2022-10-15T01:18:51.701Z,18.38
2022-10-15T01:19:01.701Z,18.37
2022-10-15T01:19:11.703Z,18.37
2022-10-15T01:19:21.706Z,18.38
2022-10-15T01:19:31.703Z,18.39
2022-10-15T01:19:41.704Z,18.37
2022-10-15T01:19:51.703Z,18.38
2022-10-15T01:20:01.705Z,18.37
2022-10-15T01:20:11.703Z,18.37
2022-10-15T01:20:21.703Z,18.38
2022-10-15T01:20:31.706Z,18.37
2022-10-15T01:20:41.706Z,18.37
2022-10-15T01:20:51.707Z,18.37
2022-10-15T01:21:01.709Z,18.38
2022-10-15T01:21:11.709Z,18.37
2022-10-15T01:21:21.709Z,18.37
2022-10-15T01:21:31.710Z,18.38
2022-10-15T01:21:41.710Z,18.38
2022-10-15T01:21:51.714Z,18.37
2022-10-15T01:22:01.710Z,18.37
2022-10-15T01:22:11.709Z,18.37
2022-10-15T01:22:21.714Z,18.37
2022-10-15T01:22:31.711Z,18.37
2022-10-15T01:22:41.714Z,18.38
2022-10-15T01:22:51.718Z,18.38
2022-10-15T01:23:01.720Z,18.38
2022-10-15T01:23:11.716Z,18.39
2022-10-15T01:23:25.112Z,18.39
2022-10-15T01:23:31.719Z,18.36
2022-10-15T01:23:41.721Z,18.36
2022-10-15T01:23:51.720Z,18.36
2022-10-15T01:24:01.707Z,18.36
2022-10-15T01:24:11.720Z,18.37
2022-10-15T01:24:21.720Z,18.37
2022-10-15T01:24:31.722Z,18.38
2022-10-15T01:24:41.723Z,18.38
2022-10-15T01:24:51.723Z,18.37
2022-10-15T01:25:01.723Z,18.37
2022-10-15T01:25:11.781Z,18.38
2022-10-15T01:25:21.729Z,18.38
2022-10-15T01:25:31.727Z,18.36
2022-10-15T01:25:41.725Z,18.36
2022-10-15T01:25:51.725Z,18.36
2022-10-15T01:26:01.727Z,18.36
2022-10-15T01:26:11.727Z,18.36
2022-10-15T01:26:21.727Z,18.36
2022-10-15T01:26:31.732Z,18.37
2022-10-15T01:26:41.728Z,18.37
2022-10-15T01:26:51.730Z,18.36
2022-10-15T01:27:01.731Z,18.36
2022-10-15T01:27:11.733Z,18.35
2022-10-15T01:27:22.124Z,18.36
2022-10-15T01:27:31.732Z,18.36
2022-10-15T01:27:41.734Z,18.36
2022-10-15T01:27:51.735Z,18.37
2022-10-15T01:28:01.735Z,18.38
2022-10-15T01:28:11.736Z,18.35
2022-10-15T01:28:21.777Z,18.35
2022-10-15T01:28:31.763Z,18.37
2022-10-15T01:28:41.858Z,18.36
2022-10-15T01:28:51.861Z,18.36
2022-10-15T01:29:01.827Z,18.34
2022-10-15T01:29:11.744Z,18.36
2022-10-15T01:29:21.742Z,18.36
2022-10-15T01:29:31.745Z,18.38
2022-10-15T01:29:41.745Z,18.37
2022-10-15T01:29:51.745Z,18.35
2022-10-15T01:30:01.745Z,18.36
2022-10-15T01:30:11.746Z,18.35
2022-10-15T01:30:21.748Z,18.36
2022-10-15T01:30:31.735Z,18.36
2022-10-15T01:30:41.749Z,18.38
2022-10-15T01:30:51.749Z,18.37
2022-10-15T01:31:01.750Z,18.36
2022-10-15T01:31:11.752Z,18.37
2022-10-15T01:31:21.750Z,18.37
2022-10-15T01:31:31.755Z,18.37
2022-10-15T01:31:41.772Z,18.38
2022-10-15T01:31:51.754Z,18.36
2022-10-15T01:32:01.755Z,18.36
2022-10-15T01:32:11.756Z,18.36
2022-10-15T01:32:21.761Z,18.35
2022-10-15T01:32:31.755Z,18.36
2022-10-15T01:32:41.742Z,18.36
2022-10-15T01:32:51.758Z,18.35
2022-10-15T01:33:01.761Z,18.37
2022-10-15T01:33:11.761Z,18.34
2022-10-15T01:33:21.762Z,18.35
2022-10-15T01:33:31.765Z,18.36
2022-10-15T01:33:41.763Z,18.35
2022-10-15T01:33:51.765Z,18.35
2022-10-15T01:34:01.814Z,18.36
2022-10-15T01:34:11.788Z,18.36
2022-10-15T01:34:21.771Z,18.35
2022-10-15T01:34:31.773Z,18.35
2022-10-15T01:34:41.769Z,18.34
2022-10-15T01:34:51.771Z,18.35
2022-10-15T01:35:01.772Z,18.36
2022-10-15T01:35:11.772Z,18.36
2022-10-15T01:35:21.774Z,18.34
2022-10-15T01:35:31.778Z,18.38
2022-10-15T01:35:41.773Z,18.36
2022-10-15T01:35:51.773Z,18.35
2022-10-15T01:36:04.142Z,18.35
2022-10-15T01:36:11.774Z,18.33
2022-10-15T01:36:21.776Z,18.34
2022-10-15T01:36:31.780Z,18.33
2022-10-15T01:36:41.781Z,18.35
2022-10-15T01:36:51.776Z,18.33
2022-10-15T01:37:01.781Z,18.34
2022-10-15T01:37:11.779Z,18.36
2022-10-15T01:37:22.186Z,18.34
2022-10-15T01:37:31.781Z,18.35
2022-10-15T01:37:41.780Z,18.35
2022-10-15T01:37:51.783Z,18.36
2022-10-15T01:38:01.787Z,18.36
2022-10-15T01:38:11.785Z,18.36
2022-10-15T01:38:21.786Z,18.35
2022-10-15T01:38:31.790Z,18.34
2022-10-15T01:38:41.773Z,18.35
2022-10-15T01:38:51.788Z,18.37
2022-10-15T01:39:01.790Z,18.36
2022-10-15T01:39:11.790Z,18.37
2022-10-15T01:39:21.790Z,18.36
2022-10-15T01:39:31.791Z,18.35
2022-10-15T01:39:41.791Z,18.35
2022-10-15T01:39:51.794Z,18.35
2022-10-15T01:40:01.794Z,18.36
2022-10-15T01:40:11.795Z,18.36
2022-10-15T01:40:21.796Z,18.36
2022-10-15T01:40:31.798Z,18.37
2022-10-15T01:40:41.781Z,18.36
2022-10-15T01:40:51.799Z,18.36
2022-10-15T01:41:01.801Z,18.37
2022-10-15T01:41:11.798Z,18.36
2022-10-15T01:41:21.801Z,18.37
2022-10-15T01:41:31.797Z,18.37
2022-10-15T01:41:41.801Z,18.36
2022-10-15T01:41:51.804Z,18.37
2022-10-15T01:42:01.802Z,18.36
2022-10-15T01:42:11.804Z,18.36
2022-10-15T01:42:21.808Z,18.37
2022-10-15T01:42:31.806Z,18.34
2022-10-15T01:42:41.806Z,18.36
2022-10-15T01:42:51.809Z,18.36
2022-10-15T01:43:01.808Z,18.36
2022-10-15T01:43:11.859Z,18.36
2022-10-15T01:43:31.812Z,18.34
2022-10-15T01:43:41.814Z,18.34
2022-10-15T01:43:51.815Z,18.34
2022-10-15T01:44:01.821Z,18.34
2022-10-15T01:44:11.815Z,18.35
2022-10-15T01:44:21.814Z,18.34
2022-10-15T01:44:31.816Z,18.34
2022-10-15T01:44:41.817Z,18.36
2022-10-15T01:44:51.819Z,18.37
2022-10-15T01:45:01.818Z,18.38
2022-10-15T01:45:11.821Z,18.37
2022-10-15T01:45:21.821Z,18.36
2022-10-15T01:45:31.821Z,18.34
2022-10-15T01:45:41.820Z,18.35
2022-10-15T01:45:51.823Z,18.36
2022-10-15T01:46:01.832Z,18.37
2022-10-15T01:46:11.809Z,18.36
2022-10-15T01:46:21.826Z,18.36
2022-10-15T01:46:31.825Z,18.36
2022-10-15T01:46:41.825Z,18.36
2022-10-15T01:46:51.827Z,18.37
2022-10-15T01:47:01.828Z,18.35
2022-10-15T01:47:11.828Z,18.35
2022-10-15T01:47:22.127Z,18.35
2022-10-15T01:47:31.830Z,18.36
2022-10-15T01:47:41.830Z,18.35
2022-10-15T01:47:51.830Z,18.36
2022-10-15T01:48:01.833Z,18.36
2022-10-15T01:48:11.824Z,18.36
2022-10-15T01:48:21.822Z,18.36
2022-10-15T01:48:31.819Z,18.35
2022-10-15T01:48:41.835Z,18.35
2022-10-15T01:48:51.839Z,18.34
2022-10-15T01:49:01.837Z,18.35
2022-10-15T01:49:11.839Z,18.34
2022-10-15T01:49:21.840Z,18.36
2022-10-15T01:49:31.839Z,18.36
2022-10-15T01:49:41.839Z,18.35
2022-10-15T01:49:51.842Z,18.35
2022-10-15T01:50:01.843Z,18.35
2022-10-15T01:50:11.846Z,18.35
2022-10-15T01:50:21.844Z,18.37
2022-10-15T01:50:31.845Z,18.36
2022-10-15T01:50:41.846Z,18.36
2022-10-15T01:50:51.849Z,18.36
2022-10-15T01:51:01.845Z,18.38
2022-10-15T01:51:11.846Z,18.34
2022-10-15T01:51:21.851Z,18.36
2022-10-15T01:51:31.846Z,18.36
2022-10-15T01:51:41.848Z,18.36
2022-10-15T01:51:51.849Z,18.35
2022-10-15T01:52:01.850Z,18.33
2022-10-15T01:52:11.850Z,18.35
2022-10-15T01:52:21.887Z,18.35
2022-10-15T01:52:31.855Z,18.33
2022-10-15T01:52:41.855Z,18.35
2022-10-15T01:52:51.855Z,18.35
2022-10-15T01:53:01.868Z,18.36
2022-10-15T01:53:11.845Z,18.36
2022-10-15T01:53:21.860Z,18.36
2022-10-15T01:53:31.865Z,18.36
2022-10-15T01:53:41.859Z,18.35
2022-10-15T01:53:51.859Z,18.35
2022-10-15T01:54:01.862Z,18.36
2022-10-15T01:54:11.864Z,18.36
2022-10-15T01:54:21.847Z,18.36
2022-10-15T01:54:31.850Z,18.35
2022-10-15T01:54:41.851Z,18.36
2022-10-15T01:54:51.865Z,18.36
2022-10-15T01:55:01.852Z,18.36
2022-10-15T01:55:11.868Z,18.35
2022-10-15T01:55:21.868Z,18.37
2022-10-15T01:55:31.870Z,18.36
2022-10-15T01:55:41.873Z,18.36
2022-10-15T01:55:51.873Z,18.36
2022-10-15T01:56:01.874Z,18.36
2022-10-15T01:56:11.877Z,18.37
2022-10-15T01:56:21.876Z,18.35
2022-10-15T01:56:31.876Z,18.35
2022-10-15T01:56:41.875Z,18.36
2022-10-15T01:56:51.861Z,18.36
2022-10-15T01:57:01.879Z,18.34
2022-10-15T01:57:11.901Z,18.37
2022-10-15T01:57:22.296Z,18.36
2022-10-15T01:57:31.878Z,18.36
2022-10-15T01:57:41.880Z,18.35
2022-10-15T01:57:51.880Z,18.36
2022-10-15T01:58:01.879Z,18.34
2022-10-15T01:58:11.865Z,18.35
2022-10-15T01:58:21.883Z,18.36
2022-10-15T01:58:31.882Z,18.35
2022-10-15T01:58:41.881Z,18.35
2022-10-15T01:58:51.886Z,18.36
2022-10-15T01:59:01.882Z,18.35
2022-10-15T01:59:11.883Z,18.36
2022-10-15T01:59:21.896Z,18.36
2022-10-15T01:59:31.870Z,18.36
2022-10-15T01:59:41.871Z,18.36
2022-10-15T01:59:51.886Z,18.35
2022-10-15T02:00:01.887Z,18.38
2022-10-15T02:00:11.888Z,18.36
2022-10-15T02:00:21.892Z,18.38
2022-10-15T02:00:31.895Z,18.37
2022-10-15T02:00:41.959Z,18.36
2022-10-15T02:00:51.941Z,18.37
2022-10-15T02:01:01.915Z,18.37
2022-10-15T02:01:11.918Z,18.37
2022-10-15T02:01:21.935Z,18.34
2022-10-15T02:01:32.072Z,18.34
2022-10-15T02:01:53.180Z,18.32
2022-10-15T02:02:01.901Z,18.30
2022-10-15T02:02:11.899Z,18.32
2022-10-15T02:02:22.371Z,18.33
2022-10-15T02:02:31.901Z,18.33
2022-10-15T02:02:41.903Z,18.33
2022-10-15T02:02:51.903Z,18.32
2022-10-15T02:03:01.904Z,18.33
2022-10-15T02:03:11.906Z,18.34
2022-10-15T02:03:21.902Z,18.34
2022-10-15T02:03:31.904Z,18.32
2022-10-15T02:03:41.904Z,18.33
2022-10-15T02:03:51.907Z,18.33
2022-10-15T02:04:01.909Z,18.33
2022-10-15T02:04:11.891Z,18.33
2022-10-15T02:04:21.910Z,18.33
2022-10-15T02:04:31.911Z,18.33
2022-10-15T02:04:41.910Z,18.35
2022-10-15T02:04:51.913Z,18.33
2022-10-15T02:05:01.938Z,18.33
2022-10-15T02:05:11.914Z,18.34
2022-10-15T02:05:21.914Z,18.36
2022-10-15T02:05:31.915Z,18.35
2022-10-15T02:05:41.922Z,18.34
2022-10-15T02:05:51.918Z,18.36
2022-10-15T02:06:01.904Z,18.36
2022-10-15T02:06:11.906Z,18.36
2022-10-15T02:06:21.922Z,18.36
2022-10-15T02:06:31.927Z,18.34
2022-10-15T02:06:41.925Z,18.34
2022-10-15T02:06:51.924Z,18.36
2022-10-15T02:07:01.930Z,18.36
2022-10-15T02:07:11.926Z,18.35
2022-10-15T02:07:21.930Z,18.37
2022-10-15T02:07:31.926Z,18.34
2022-10-15T02:07:41.929Z,18.35
2022-10-15T02:07:51.929Z,18.34
2022-10-15T02:08:01.928Z,18.35
2022-10-15T02:08:11.929Z,18.36
2022-10-15T02:08:21.931Z,18.36
2022-10-15T02:08:31.932Z,18.36
2022-10-15T02:08:41.933Z,18.35
2022-10-15T02:08:51.935Z,18.35
2022-10-15T02:09:01.934Z,18.33
2022-10-15T02:09:11.933Z,18.36
2022-10-15T02:09:21.932Z,18.36
2022-10-15T02:09:31.935Z,18.36
2022-10-15T02:09:41.937Z,18.35
2022-10-15T02:09:51.934Z,18.38